Date,TemperatureHighF,TemperatureAvgF,TemperatureLowF,DewpointHighF,DewpointAvgF,DewpointLowF,HumidityHigh,HumidityAvg,HumidityLow,PressureMaxIn,PressureMinIn,WindSpeedMaxMPH,WindSpeedAvgMPH,GustSpeedMaxMPH,PrecipitationSumIn
2013-1-1,43.0,37.6,31.3,12.6,8.6,4.5,42,30,21,27.70,27.70,5,1,6,0.00
2013-1-2,35.8,30.7,23.9,8.1,0.1,-6.6,43,27,20,27.70,27.70,8,1,10,0.00
2013-1-3,35.4,26.2,19.4,6.0,1.3,-6.6,46,35,20,27.70,27.70,6,0,8,0.00
2013-1-4,39.0,30.2,21.6,11.4,3.1,-2.5,53,33,19,27.70,27.70,8,2,12,0.00
2013-1-5,40.3,32.2,25.5,10.2,3.1,-1.3,41,29,21,27.70,27.70,6,1,6,0.00
2013-1-6,47.8,38.1,26.1,22.1,10.0,3.3,58,34,19,27.70,27.70,8,1,8,0.00
2013-1-7,45.3,36.8,24.3,10.3,6.2,0.7,45,28,20,27.70,27.70,8,1,9,0.00
2013-1-8,49.3,33.1,22.3,18.3,7.8,3.6,50,36,19,27.70,27.70,7,1,10,0.00
2013-1-9,47.8,35.2,25.3,27.7,16.5,7.5,69,47,27,27.70,27.70,4,0,6,0.00
2013-1-10,50.0,39.6,30.7,25.6,12.3,4.5,71,35,19,27.70,27.70,8,1,8,0.00
2013-1-11,44.8,38.9,31.3,30.6,18.7,9.4,64,45,25,27.70,27.70,7,0,8,0.09
2013-1-12,55.9,45.3,40.8,38.9,31.8,26.5,82,61,34,27.70,27.70,4,0,6,0.00
2013-1-13,50.9,46.3,38.8,47.5,42.1,29.9,92,85,69,27.70,27.70,6,0,8,0.00
2013-1-14,57.4,50.6,39.4,54.8,35.3,9.4,93,61,22,27.70,27.70,7,1,8,0.16
2013-1-15,39.9,38.5,35.1,35.5,32.8,26.3,87,80,60,27.70,27.70,4,0,5,0.67
2013-1-16,39.6,37.3,34.7,36.5,34.0,31.1,90,88,86,27.70,27.70,8,0,9,0.58
2013-1-17,44.4,39.0,35.2,36.7,24.0,10.4,92,59,28,27.70,27.70,8,1,9,0.00
2013-1-18,35.4,30.7,24.1,20.5,3.5,-6.6,57,32,20,27.70,27.70,10,2,13,0.00
2013-1-19,49.1,36.7,24.4,10.3,6.0,2.4,50,29,19,27.70,27.70,9,3,13,0.00
2013-1-20,54.3,39.3,28.9,16.2,6.7,-4.8,51,27,16,27.70,27.70,7,2,10,0.00
2013-1-21,39.4,31.7,27.0,7.1,-1.2,-6.8,35,24,19,27.70,27.70,10,2,12,0.00
2013-1-22,27.3,19.4,11.8,-6.7,-11.3,-16.3,24,23,21,27.70,27.70,9,3,11,0.00
2013-1-23,24.4,17.5,8.4,-8.0,-12.7,-18.8,24,23,22,29.86,27.70,8,1,10,0.01
2013-1-24,25.0,18.2,10.0,-0.4,-8.3,-15.5,42,29,21,30.15,29.74,9,2,13,0.00
2013-1-25,23.5,17.2,9.7,1.1,-7.9,-15.8,44,31,22,30.15,29.74,7,1,9,0.00
2013-1-26,32.0,23.4,14.5,4.0,-1.1,-6.1,44,34,23,30.06,29.74,7,1,9,0.00
2013-1-27,34.9,22.6,12.4,5.0,-2.3,-6.0,46,34,20,30.24,30.06,5,0,6,0.05
2013-1-28,37.4,32.4,26.1,30.3,18.4,1.3,83,58,32,30.15,29.71,6,1,8,0.12
2013-1-29,62.2,42.5,30.9,37.9,27.3,23.6,82,59,26,29.80,29.65,6,1,9,0.00
2013-1-30,68.2,53.2,37.0,56.5,40.3,22.6,95,65,30,29.65,28.91,12,2,21,2.04
2013-1-31,60.6,41.9,24.8,59.0,13.6,-6.6,95,37,17,29.56,28.85,11,3,17,0.70
2013-2-1,29.8,25.4,18.1,12.1,-4.4,-12.0,51,26,20,30.01,29.50,9,2,12,0.00
2013-2-2,30.2,22.9,13.6,11.3,-3.5,-13.7,52,31,20,30.04,29.68,7,1,10,0.00
2013-2-3,34.2,27.8,19.0,14.1,7.3,-0.6,52,42,28,29.68,29.50,6,0,8,0.04
2013-2-4,36.3,28.6,21.2,3.6,-3.0,-8.5,32,25,19,29.77,29.56,7,2,10,0.00
2013-2-5,38.3,32.6,27.9,11.7,6.3,1.8,42,33,24,29.62,29.53,4,0,5,0.00
2013-2-6,41.7,33.4,25.2,17.8,6.8,-0.6,55,34,21,30.01,29.59,8,1,14,0.00
2013-2-7,36.9,31.2,22.8,8.1,4.0,-0.9,47,32,22,30.09,29.89,8,1,9,0.00
2013-2-8,40.6,35.9,33.1,33.3,20.1,3.4,83,55,27,29.89,29.42,10,2,10,0.16
2013-2-9,37.6,30.3,23.7,5.5,-0.2,-4.6,44,27,19,30.04,29.59,11,4,15,0.00
2013-2-10,42.6,30.8,17.6,6.8,0.7,-2.3,47,30,18,30.15,29.92,8,2,10,0.00
2013-2-11,50.2,41.9,34.3,45.5,31.7,0.4,87,69,22,29.92,29.39,7,2,9,0.38
2013-2-12,52.3,41.9,31.8,19.5,11.4,4.5,46,30,18,29.68,29.47,7,2,13,0.00
2013-2-13,45.9,34.3,26.1,23.0,12.4,4.3,66,43,20,29.65,29.33,6,1,7,0.08
2013-2-14,45.1,34.5,28.6,26.8,16.0,5.6,78,50,20,29.68,29.44,5,0,6,0.17
2013-2-15,55.9,38.9,26.8,26.8,14.8,7.6,65,41,17,29.71,29.56,9,1,10,0.12
2013-2-16,37.9,34.6,30.4,29.2,14.3,-2.8,80,46,23,29.68,29.50,7,1,8,0.00
2013-2-17,34.3,27.0,22.1,1.2,-4.8,-9.8,35,24,20,29.83,29.47,9,3,14,0.00
2013-2-18,38.1,27.1,17.4,0.9,-5.8,-12.2,32,23,19,30.04,29.83,7,2,12,0.00
2013-2-19,42.4,33.9,23.9,36.0,16.3,-0.3,84,51,21,29.83,29.39,10,2,14,0.21
2013-2-20,36.1,30.3,23.5,10.7,-2.6,-8.7,42,23,19,29.80,29.50,8,3,10,0.00
2013-2-21,37.6,28.4,21.9,0.6,-4.9,-9.9,33,22,19,29.98,29.77,9,3,13,0.00
2013-2-22,34.5,30.5,26.1,17.2,3.5,-4.8,55,32,22,30.04,29.89,8,2,11,0.00
2013-2-23,45.9,38.0,31.5,38.7,28.5,15.9,86,69,51,29.89,29.50,4,0,5,0.08
2013-2-24,50.4,40.4,28.6,38.0,17.8,-1.3,88,48,19,29.77,29.47,9,2,17,0.00
2013-2-25,46.9,33.6,23.7,9.7,4.3,-0.6,50,30,17,29.86,29.77,7,1,8,0.00
2013-2-26,42.3,34.6,25.2,41.5,20.2,5.3,97,59,26,29.89,29.30,11,2,15,0.67
2013-2-27,43.5,42.0,39.9,42.7,41.1,38.9,97,96,96,29.30,29.18,6,1,7,0.04
2013-3-4,40.5,27.1,25.3,39.4,7.6,2.8,96,44,36,29.68,29.27,0,0,0,0.04
2013-3-5,48.6,36.0,23.5,8.3,3.1,-2.3,46,27,16,29.74,29.50,8,2,10,0.00
2013-3-6,38.7,35.0,33.3,34.3,27.7,1.7,98,78,21,29.65,29.33,12,3,16,0.58
2013-3-7,49.3,39.4,32.4,18.7,9.0,2.4,50,30,17,29.80,29.65,11,3,15,0.04
2013-3-8,49.5,40.0,29.7,14.5,6.6,-0.6,50,26,17,29.92,29.77,12,4,15,0.00
2013-3-9,59.4,43.1,31.3,14.6,5.8,-2.3,40,22,16,30.01,29.92,8,2,10,0.00
2013-3-10,61.5,44.2,26.6,16.2,9.4,1.2,45,26,15,29.98,29.89,10,2,11,0.00
2013-3-11,60.1,50.2,39.7,26.0,20.5,3.9,48,32,19,29.92,29.62,9,3,12,0.00
2013-3-12,59.2,51.1,39.7,54.8,31.8,10.1,95,53,21,29.62,29.39,8,3,11,1.16
2013-3-13,51.3,39.6,29.5,20.4,8.3,-3.1,54,30,16,29.71,29.56,8,2,11,0.00
2013-3-14,45.5,36.5,30.2,3.6,-1.5,-5.4,23,19,17,29.77,29.68,8,3,14,0.00
2013-3-15,56.3,40.6,24.6,12.5,5.4,-4.7,40,24,16,29.74,29.44,9,2,15,0.00
2013-3-16,53.8,44.1,37.2,16.6,11.4,6.4,37,27,18,29.59,29.33,8,2,10,0.00
2013-3-17,42.1,38.1,32.7,17.0,6.4,-1.3,50,27,18,29.92,29.59,8,1,10,0.00
2013-3-18,38.7,36.2,34.5,33.1,12.0,-2.3,88,44,19,29.98,29.53,10,2,13,0.38
2013-3-19,58.3,44.0,35.1,35.8,19.8,-1.9,87,48,16,29.56,29.36,9,2,12,0.00
2013-3-20,56.1,40.6,26.2,11.9,3.4,-2.3,42,22,16,29.65,29.44,8,2,11,0.00
2013-3-21,40.3,34.1,25.7,11.6,-1.4,-7.9,40,21,18,29.56,29.42,10,2,13,0.00
2013-3-22,47.5,34.3,24.4,4.7,-2.0,-8.4,30,21,17,29.65,29.53,7,2,10,0.00
2013-3-23,51.6,37.6,24.3,10.7,4.1,-2.2,44,26,16,29.68,29.59,8,2,10,0.00
2013-3-24,45.9,36.3,26.4,13.9,3.2,-2.0,40,25,17,29.68,29.33,7,1,8,0.00
2013-3-25,37.8,34.8,32.5,29.0,20.0,11.9,84,55,37,29.36,29.18,4,0,6,0.41
2013-3-26,56.1,39.8,28.8,31.4,16.1,4.2,87,47,17,29.65,29.36,7,1,11,0.08
2013-3-27,52.3,42.1,33.4,10.3,6.2,-0.4,35,23,17,29.77,29.62,9,2,10,0.00
2013-3-28,50.7,41.3,30.4,13.9,7.0,2.4,42,25,16,29.89,29.74,9,2,12,0.00
2013-3-29,57.6,45.8,36.0,13.1,7.8,1.1,30,21,16,29.89,29.80,8,1,10,0.00
2013-3-30,61.3,44.9,30.9,15.3,9.6,0.6,42,25,16,29.89,29.77,7,1,8,0.00
2013-3-31,53.1,43.8,34.2,39.0,21.0,6.3,73,42,21,29.80,29.39,7,0,7,0.00
2013-4-1,66.6,47.1,34.0,37.9,18.2,-0.9,82,39,15,29.65,29.42,10,2,15,0.00
2013-4-2,56.1,38.1,25.2,11.9,1.9,-5.8,41,22,16,29.83,29.65,9,2,11,0.00
2013-4-3,53.2,37.6,22.8,10.6,1.5,-5.8,39,22,16,30.04,29.83,9,2,15,0.00
2013-4-4,29.7,24.7,21.6,1.2,-1.4,-6.5,38,31,20,30.06,30.01,0,0,0,0.00
2013-4-5,64.0,54.4,38.1,28.3,13.2,4.1,62,21,16,29.71,29.47,8,3,11,0.13
2013-4-6,57.2,45.7,32.9,12.8,4.7,-2.4,25,18,16,29.98,29.71,8,2,9,0.00
2013-4-7,68.0,53.2,35.6,18.6,11.4,1.5,36,19,15,29.95,29.65,11,4,17,0.00
2013-4-8,80.6,64.1,45.9,24.5,20.1,11.3,37,20,12,29.74,29.62,9,2,11,0.00
2013-4-9,85.6,69.3,52.0,30.6,25.0,18.6,38,21,11,29.74,29.59,8,1,10,0.00
2013-4-10,91.8,73.9,56.7,33.3,27.9,21.3,36,20,11,29.65,29.42,8,2,10,0.00
2013-4-11,88.7,70.2,56.5,36.1,29.0,22.0,40,24,12,29.56,29.39,9,3,15,0.00
2013-4-12,68.4,57.3,51.4,52.8,43.3,31.3,93,64,26,29.50,29.27,8,2,11,0.49
2013-4-13,66.6,54.9,41.4,44.1,24.9,11.8,86,40,15,29.62,29.44,8,2,10,0.00
2013-4-14,67.5,54.5,38.8,27.8,19.0,10.0,53,28,15,29.80,29.62,7,1,9,0.00
2013-4-15,65.8,57.0,51.6,37.6,22.9,14.6,56,28,15,29.95,29.77,9,2,13,0.00
2013-4-16,74.3,63.1,53.8,34.2,25.3,20.6,37,24,16,29.98,29.77,12,3,15,0.00
2013-4-17,77.0,65.6,25.5,47.1,31.4,1.1,66,31,15,30.06,29.77,6,1,9,0.00
2013-4-18,73.9,63.6,57.9,57.1,35.9,25.2,87,40,21,29.89,29.68,9,3,15,0.13
2013-4-19,77.7,64.9,52.7,60.4,42.2,31.7,85,48,20,29.68,29.27,9,2,14,0.79
2013-4-20,60.4,52.2,43.7,47.9,20.0,8.1,83,32,17,29.98,29.44,7,2,10,0.04
2013-4-21,56.5,46.6,35.8,12.5,7.4,0.9,34,20,16,30.24,29.98,7,2,10,0.00
2013-4-22,57.9,46.7,33.4,16.5,11.3,6.9,42,25,17,30.21,30.06,10,2,15,0.00
2013-4-23,60.8,51.3,43.5,22.0,14.6,7.2,39,24,16,30.06,29.77,6,1,10,0.00
2013-4-24,76.3,60.1,41.4,39.8,24.7,18.5,74,30,13,29.80,29.44,8,2,14,0.00
2013-4-25,63.1,56.2,45.3,24.7,14.0,7.2,32,19,16,29.98,29.62,7,2,9,0.00
2013-4-26,65.3,52.1,38.7,23.6,15.7,8.5,46,25,15,30.09,29.95,7,1,8,0.00
2013-4-27,70.5,54.7,37.6,23.8,16.5,10.3,43,24,14,30.09,29.95,7,1,10,0.00
2013-4-28,70.0,55.6,40.8,25.7,16.7,12.7,42,23,15,29.95,29.80,9,2,13,0.00
2013-4-29,59.4,55.6,51.4,55.2,44.5,11.3,93,72,17,29.83,29.71,7,1,9,0.25
2013-4-30,59.7,56.5,50.2,54.8,50.6,41.2,95,82,52,29.95,29.77,4,0,8,0.20
2013-5-1,68.0,56.0,42.4,44.6,26.4,14.3,86,42,15,30.06,29.95,8,1,13,0.00
2013-5-2,52.2,46.2,40.6,30.9,24.6,22.0,51,43,32,30.09,30.06,3,0,5,0.00
2013-5-4,66.4,60.3,48.4,18.6,16.3,11.3,30,18,15,29.92,29.77,7,2,10,0.00
2013-5-5,61.5,52.3,43.7,25.5,16.9,9.7,41,26,16,29.92,29.83,9,1,12,0.00
2013-5-6,61.9,54.5,45.1,49.4,29.5,19.6,71,39,27,29.86,29.71,6,1,11,0.00
2013-5-7,62.8,59.3,58.1,61.3,56.2,13.7,95,90,17,29.77,29.62,6,1,10,1.20
2013-5-8,69.4,61.4,56.3,60.2,45.8,25.0,96,64,20,29.68,29.59,9,1,12,0.04
2013-5-9,72.5,62.2,55.0,48.5,38.7,27.7,75,46,21,29.65,29.59,4,0,5,0.00
2013-5-10,80.8,67.0,52.7,58.6,35.6,24.4,83,37,14,29.68,29.53,7,1,10,0.66
2013-5-11,74.5,65.5,61.9,62.6,54.7,31.5,90,71,22,29.59,29.39,4,0,8,0.62
2013-5-12,62.8,57.1,45.3,56.9,29.1,10.3,86,43,16,29.68,29.42,6,1,9,0.00
2013-5-13,58.8,48.7,38.5,30.3,14.6,6.6,60,28,17,29.83,29.68,6,1,9,0.00
2013-5-14,52.3,39.9,34.2,26.8,16.8,8.1,51,40,19,29.89,29.74,3,0,5,0.00
2013-5-15,78.3,62.9,52.2,42.6,30.5,21.1,53,31,15,29.74,29.36,6,1,13,0.00
2013-5-16,76.3,68.5,61.0,45.4,38.1,31.4,49,35,20,29.59,29.42,5,0,8,0.00
2013-5-17,79.2,67.3,55.9,48.0,30.5,13.7,66,30,12,29.83,29.59,6,0,9,0.00
2013-5-18,66.7,62.8,59.5,47.4,32.5,22.5,64,33,21,29.92,29.80,6,1,9,0.00
2013-5-19,69.3,63.8,59.5,59.7,53.6,47.5,88,71,47,29.89,29.77,4,0,6,0.00
2013-5-20,76.8,69.2,58.3,61.6,51.1,13.7,85,57,17,29.80,29.65,4,0,6,0.00
2013-5-21,80.6,71.3,62.8,62.1,47.2,37.5,82,46,22,29.65,29.53,5,0,8,0.00
2013-5-22,84.9,74.1,58.3,62.9,45.9,13.7,76,40,17,29.59,29.47,7,1,8,0.00
2013-5-23,79.0,70.3,64.8,60.5,47.7,32.0,84,48,20,29.56,29.42,5,1,10,1.25
2013-5-24,65.1,57.1,48.7,60.0,37.5,10.4,89,54,21,29.80,29.42,6,2,10,0.13
2013-5-25,62.8,52.7,43.5,21.6,15.9,10.4,36,24,16,29.80,29.74,6,2,10,0.00
2013-5-26,67.5,56.2,45.5,25.6,18.3,12.7,37,24,15,29.86,29.77,5,1,8,0.00
2013-5-27,67.6,57.1,44.1,32.6,24.0,14.8,50,31,15,29.95,29.83,4,0,6,0.01
2013-5-28,73.8,66.7,58.1,58.1,48.2,33.6,81,54,24,29.83,29.74,5,0,8,0.46
2013-5-29,82.0,71.1,62.2,65.8,50.7,35.4,85,55,20,29.77,29.71,5,0,7,0.00
2013-5-30,86.0,74.3,64.4,58.1,45.2,29.0,67,40,13,29.83,29.74,4,0,6,0.00
2013-5-31,86.4,74.8,64.4,55.7,40.3,28.0,63,33,13,29.80,29.68,6,1,10,0.00
2013-6-1,86.7,76.0,66.2,49.1,41.0,33.1,49,31,16,29.68,29.56,5,1,8,0.00
2013-6-2,80.1,73.5,68.4,60.7,45.1,35.3,76,39,21,29.56,29.47,6,1,10,1.08
2013-6-3,76.6,69.8,64.9,66.7,60.0,47.4,86,72,46,29.59,29.47,4,0,5,0.33
2013-6-4,70.5,63.1,55.9,53.9,32.5,18.2,68,36,14,29.80,29.59,4,0,5,0.00
2013-6-5,74.5,63.8,52.0,44.3,31.6,22.7,57,33,16,29.86,29.71,6,1,8,0.00
2013-6-6,70.2,64.7,59.7,57.9,39.7,30.3,80,42,23,29.74,29.53,8,1,13,0.29
2013-6-7,70.2,67.7,64.4,68.2,65.2,57.9,95,92,80,29.53,29.27,5,0,6,1.70
2013-6-8,73.8,68.1,63.5,66.8,54.7,34.7,95,67,25,29.77,29.36,4,0,5,0.00
2013-6-9,77.0,68.7,61.5,59.7,49.0,33.9,79,53,23,29.86,29.74,6,1,6,0.00
2013-6-10,75.9,70.9,67.6,72.1,65.7,51.2,93,84,54,29.77,29.44,7,0,9,1.87
2013-6-11,77.2,71.3,67.3,69.3,56.6,41.2,95,65,29,29.50,29.42,4,1,7,0.00
2013-6-12,80.1,72.3,62.2,62.0,52.8,39.5,77,53,25,29.71,29.44,4,0,8,0.00
2013-6-13,81.1,71.5,66.4,68.9,59.6,38.5,91,69,25,29.47,29.12,5,0,8,0.96
2013-6-14,72.7,65.3,58.3,51.9,38.8,24.1,72,41,19,29.62,29.24,5,1,10,0.00
2013-6-15,76.3,66.3,57.0,53.2,41.3,28.8,71,44,18,29.74,29.62,4,0,6,0.00
2013-6-16,78.3,68.9,60.6,54.3,46.7,34.2,67,47,24,29.68,29.50,5,0,6,0.00
2013-6-17,82.6,73.5,66.2,56.9,49.1,36.5,62,44,21,29.62,29.50,4,0,6,0.00
2013-6-18,74.1,70.0,64.8,65.5,60.4,53.2,87,72,55,29.56,29.44,5,0,8,0.08
2013-6-19,72.7,66.8,60.6,62.4,51.1,33.3,89,61,26,29.80,29.53,5,0,6,0.20
2013-6-20,76.1,66.6,57.6,56.3,42.6,31.4,73,46,21,29.92,29.80,5,1,9,0.00
2013-6-21,77.4,66.6,56.3,48.3,35.5,24.3,60,35,15,29.98,29.89,7,1,8,0.00
2013-6-22,81.9,70.3,58.3,53.7,41.6,34.2,66,39,19,29.92,29.77,4,1,10,0.00
2013-6-23,78.1,70.7,64.4,63.7,55.5,44.8,76,59,43,29.86,29.71,5,0,6,0.13
2013-6-24,84.7,73.0,67.1,67.6,59.0,38.9,85,65,21,29.77,29.65,4,0,5,0.08
2013-6-25,84.2,74.4,65.8,69.8,56.9,40.2,86,59,23,29.68,29.53,7,0,8,0.21
2013-6-26,83.1,72.8,66.2,68.1,59.7,42.3,85,67,27,29.59,29.44,4,0,7,0.37
2013-6-27,80.6,73.2,62.2,70.0,61.9,39.5,87,70,33,29.47,29.27,7,1,8,0.33
2013-6-28,82.6,73.6,68.9,69.1,58.7,39.3,87,63,23,29.30,29.15,5,0,7,0.09
2013-6-29,81.1,72.9,65.5,65.6,51.4,34.5,84,52,20,29.36,29.21,4,0,6,0.00
2013-6-30,82.4,74.6,68.9,69.8,58.9,42.1,85,60,25,29.50,29.36,8,1,10,0.00
2013-7-1,78.4,74.6,71.6,71.9,64.8,53.4,87,73,45,29.62,29.50,5,1,7,0.16
2013-7-2,80.4,75.1,72.5,69.5,60.7,46.0,86,63,31,29.83,29.62,5,1,8,0.00
2013-7-3,81.9,74.5,70.9,73.5,65.3,48.0,89,75,33,29.89,29.80,4,0,5,0.34
2013-7-4,84.7,77.0,71.2,69.5,56.5,39.6,87,54,21,29.92,29.80,7,1,10,0.00
2013-7-5,86.7,77.9,70.7,67.7,53.4,38.9,81,47,19,29.86,29.77,5,1,8,0.00
2013-7-6,88.2,78.7,71.6,67.3,54.3,39.6,78,47,19,29.83,29.71,4,0,6,0.00
2013-7-7,88.0,76.8,70.2,67.2,56.3,40.1,86,54,19,29.77,29.65,5,0,8,0.12
2013-7-8,80.2,73.7,69.1,70.2,58.6,39.5,87,63,24,29.74,29.68,3,0,6,0.04
2013-7-9,79.0,74.0,69.4,67.5,62.7,57.1,79,68,52,29.77,29.65,3,0,5,0.00
2013-7-10,83.5,76.5,72.3,70.9,62.1,46.5,84,64,29,29.68,29.50,5,0,6,0.00
2013-7-11,79.7,74.5,72.0,68.8,60.0,44.6,86,63,30,29.56,29.47,4,0,8,0.17
2013-7-12,72.5,69.1,66.6,68.9,66.0,63.0,94,90,78,29.68,29.56,0,0,3,0.54
2013-7-13,79.7,73.6,69.3,70.9,63.8,51.4,94,74,39,29.92,29.68,6,0,6,0.04
2013-7-14,84.4,77.1,71.2,72.5,60.1,43.3,87,60,25,29.98,29.92,6,0,6,0.00
2013-7-15,86.0,77.4,69.8,69.1,59.8,44.8,81,58,27,29.95,29.83,4,0,5,0.00
2013-7-16,87.3,79.3,73.8,69.9,56.1,39.1,83,50,19,29.89,29.80,4,0,6,0.00
2013-7-17,88.0,78.6,71.8,69.3,55.9,40.2,79,49,19,29.86,29.74,3,0,4,0.00
2013-7-18,89.1,80.3,72.5,70.3,60.5,43.3,79,54,21,29.77,29.65,3,0,4,0.00
2013-7-19,90.3,80.5,73.4,71.3,61.8,46.3,80,56,22,29.65,29.53,4,0,7,0.04
2013-7-20,88.2,77.9,71.4,72.3,61.4,42.8,86,62,21,29.56,29.44,4,0,9,0.50
2013-7-21,84.2,75.3,69.4,71.8,61.9,46.8,87,66,29,29.59,29.53,5,0,6,0.00
2013-7-22,83.3,76.5,70.7,69.5,61.3,46.0,87,62,30,29.59,29.42,6,0,9,0.41
2013-7-23,81.0,74.5,70.3,72.1,61.3,46.9,90,67,32,29.42,29.30,4,0,7,0.09
2013-7-24,79.0,72.7,67.5,62.8,51.9,41.5,80,50,29,29.56,29.36,3,0,4,0.00
2013-7-25,74.1,67.2,60.6,50.0,37.6,29.8,60,35,21,29.68,29.56,3,0,4,0.00
2013-7-26,77.9,68.5,61.5,58.1,46.0,33.3,80,49,20,29.77,29.68,4,0,4,0.00
2013-7-27,82.0,71.2,63.9,66.8,59.0,41.5,88,70,24,29.71,29.56,6,0,6,0.54
2013-7-28,77.7,72.0,68.2,68.9,63.1,54.3,90,75,46,29.65,29.53,3,0,4,0.08
2013-7-29,75.0,67.4,61.5,61.9,47.6,30.7,89,55,21,29.80,29.62,4,0,5,0.16
2013-7-30,75.0,66.6,57.7,54.2,45.0,31.1,77,49,21,29.89,29.77,4,0,6,0.00
2013-7-31,75.7,69.3,62.8,59.6,52.5,41.1,81,57,31,29.80,29.68,4,0,6,0.00
2013-8-1,77.0,70.8,67.3,70.2,63.2,53.2,89,78,45,29.68,29.47,4,0,4,0.42
2013-8-2,79.2,71.5,65.1,65.5,55.1,37.6,86,61,23,29.62,29.50,3,0,4,0.00
2013-8-3,72.5,67.4,64.4,65.7,61.4,55.4,94,81,59,29.62,29.56,3,0,4,0.12
2013-8-4,75.2,67.1,59.9,62.8,47.8,31.0,91,57,21,29.68,29.56,4,0,6,0.00
2013-8-5,74.5,65.0,56.3,52.1,41.7,31.2,73,46,21,29.77,29.65,4,0,5,0.00
2013-8-6,70.3,66.3,62.8,65.7,58.5,46.1,91,77,53,29.74,29.68,4,0,6,0.21
2013-8-7,79.0,71.8,66.9,67.2,60.3,47.5,88,70,37,29.74,29.65,4,0,6,0.17
2013-8-8,80.4,72.5,68.9,71.7,64.1,50.1,90,78,38,29.71,29.65,5,0,7,0.25
2013-8-11,80.2,74.4,69.4,58.9,50.9,38.8,68,45,23,29.71,29.65,4,1,5,0.00
2013-8-12,81.7,73.6,67.1,64.9,56.5,40.5,83,58,24,29.68,29.56,4,0,4,0.00
2013-8-13,79.3,73.7,69.4,69.8,62.0,44.9,88,69,32,29.56,29.39,4,0,6,0.08
2013-8-14,71.4,65.3,58.1,54.6,35.4,26.8,59,34,22,29.74,29.44,5,1,10,0.00
2013-8-15,72.5,62.5,53.6,50.0,38.4,23.0,76,46,16,29.83,29.74,4,0,5,0.00
2013-8-16,75.2,63.7,54.0,54.2,41.7,28.3,71,48,20,29.86,29.77,5,0,6,0.00
2013-8-17,76.1,65.5,55.4,53.5,42.1,31.4,73,47,20,29.92,29.86,7,0,10,0.00
2013-8-18,71.1,66.7,64.2,58.4,49.6,38.8,80,56,32,29.89,29.65,5,0,6,0.00
2013-8-19,73.6,67.1,61.0,59.8,51.6,42.8,82,60,34,29.86,29.71,4,0,6,0.00
2013-8-20,81.7,70.9,61.5,65.1,52.4,37.3,82,56,22,29.83,29.74,4,0,6,0.00
2013-8-21,78.3,70.1,65.5,65.4,57.8,51.1,80,66,39,29.89,29.71,0,0,4,0.00
2013-8-22,82.2,74.8,67.3,64.7,56.7,44.1,82,56,29,29.89,29.56,4,0,6,0.00
2013-8-23,72.9,68.6,61.7,63.0,57.1,50.7,82,67,48,29.77,29.59,2,0,2,0.00
2013-8-24,77.7,66.8,58.8,57.5,46.1,30.4,84,53,18,29.98,29.74,4,0,6,0.04
2013-8-25,78.4,66.3,56.7,55.1,41.4,26.8,71,45,15,30.06,29.92,5,0,6,0.00
2013-8-26,81.9,69.0,58.3,54.4,46.1,35.8,71,47,20,29.95,29.65,4,0,5,0.00
2013-8-27,83.5,74.4,68.2,62.8,55.2,45.8,74,54,28,29.65,29.53,4,0,6,0.00
2013-8-28,76.3,72.5,69.6,71.1,63.7,53.3,88,74,46,29.56,29.47,3,0,6,0.05
2013-8-29,80.6,73.5,69.3,66.9,58.0,43.2,87,62,28,29.68,29.47,4,0,5,0.00
2013-8-30,84.9,74.9,69.4,60.6,52.2,39.1,72,49,20,29.68,29.53,5,1,6,0.00
2013-8-31,87.3,76.4,68.2,61.1,54.1,40.4,74,50,20,29.56,29.44,5,0,6,0.00
2013-9-1,87.3,76.8,68.2,62.6,56.3,40.2,72,52,20,29.50,29.39,4,0,6,0.00
2013-9-2,86.4,77.1,67.3,68.1,55.0,41.5,82,50,21,29.89,29.36,4,0,5,0.08
2013-9-3,79.9,72.9,64.8,67.6,50.6,34.5,87,52,20,29.62,29.39,5,0,8,0.00
2013-9-4,78.1,66.5,56.7,48.8,37.2,24.4,65,38,15,29.74,29.62,4,0,5,0.00
2013-9-5,79.3,67.3,59.0,55.9,42.1,33.6,76,44,20,29.80,29.65,5,1,6,0.00
2013-9-6,72.7,61.9,53.1,40.7,32.1,20.4,55,36,16,29.92,29.80,4,0,5,0.00
2013-9-7,77.5,63.3,51.1,47.7,38.2,28.9,65,43,18,29.80,29.59,4,0,5,0.00
2013-9-8,81.9,70.1,62.6,61.8,49.5,37.6,81,51,21,29.71,29.53,4,0,9,0.00
2013-9-9,76.1,67.4,57.9,49.5,37.7,28.7,50,35,22,29.86,29.71,5,0,6,0.00
2013-9-10,88.7,76.5,68.2,62.4,53.4,41.9,76,48,20,29.83,29.74,4,0,6,0.00
2013-9-11,90.9,78.3,70.0,65.1,53.6,40.0,70,46,18,29.80,29.65,0,0,0,0.00
2013-9-12,86.0,73.7,68.0,66.2,59.0,47.8,89,63,29,29.65,29.39,0,0,0,0.37
2013-9-13,68.7,66.1,64.4,65.0,62.4,60.8,89,88,86,29.44,29.36,0,0,0,0.00
2013-9-14,66.4,60.0,51.3,34.9,28.0,20.1,52,31,17,29.83,29.44,0,0,0,0.00
2013-9-15,73.4,59.2,45.5,46.1,33.0,22.6,67,42,16,29.89,29.74,0,0,0,0.00
2013-9-16,70.0,61.9,56.7,54.9,42.9,30.3,79,52,24,29.89,29.44,0,0,0,0.00
2013-9-17,66.2,57.1,48.4,45.5,27.1,15.9,64,35,15,30.09,29.89,0,0,0,0.00
2013-9-18,69.8,55.1,42.4,41.4,28.6,18.5,65,40,14,30.01,29.86,0,0,0,0.00
2013-9-19,73.9,59.6,46.0,45.1,36.7,29.0,66,45,21,29.86,29.71,0,0,0,0.00
2013-9-20,77.4,64.0,51.8,50.9,39.8,32.1,69,45,20,29.74,29.62,0,0,0,0.00
2013-9-21,74.8,64.7,57.9,64.0,48.9,32.8,91,61,22,29.65,29.36,0,0,0,0.66
2013-9-22,67.8,61.0,51.8,59.5,45.6,27.8,92,62,24,29.59,29.39,0,0,0,0.05
2013-9-23,64.2,55.2,48.4,46.4,33.2,19.1,79,48,18,29.74,29.59,0,0,0,0.00
2013-9-24,68.2,54.3,42.1,41.9,31.9,20.3,76,47,17,29.77,29.59,0,0,0,0.00
2013-9-25,71.6,56.5,44.6,44.8,33.3,18.5,74,47,14,29.65,29.56,0,0,0,0.00
2013-9-26,72.7,59.8,51.8,48.3,37.4,25.7,73,47,19,29.74,29.59,0,0,0,0.00
2013-9-27,69.6,60.1,53.1,51.4,43.0,30.3,75,55,24,29.92,29.74,0,0,0,0.00
2013-9-28,67.5,59.5,53.4,50.9,40.2,28.3,79,52,24,29.98,29.89,0,0,0,0.00
2013-9-29,71.1,57.6,47.8,49.1,39.3,29.2,75,53,22,29.89,29.71,0,0,0,0.00
2013-9-30,73.4,58.5,47.5,47.4,37.4,26.0,73,50,19,29.77,29.65,0,0,0,0.00
2013-10-1,77.5,62.1,52.3,53.2,42.0,32.8,73,51,20,29.74,29.62,0,0,0,0.00
2013-10-2,80.4,66.2,55.2,54.1,43.2,34.3,73,48,20,29.74,29.65,4,0,6,0.00
2013-10-3,77.0,66.5,58.3,54.4,47.5,40.3,71,52,29,29.77,29.68,4,0,8,0.00
2013-10-4,82.6,68.6,58.5,58.9,48.4,37.3,78,53,21,29.74,29.65,4,0,4,0.00
2013-10-5,83.1,70.7,62.1,60.3,48.0,36.0,74,48,19,29.74,29.65,4,0,5,0.00
2013-10-6,85.1,72.5,63.0,59.0,47.9,35.8,72,46,18,29.68,29.56,6,1,10,0.00
2013-10-7,73.2,65.8,54.1,62.8,54.2,42.1,89,67,48,29.71,29.44,8,1,11,0.66
2013-10-8,64.8,54.6,46.0,49.6,35.0,22.5,89,53,20,29.95,29.71,5,0,6,0.00
2013-10-9,60.1,54.5,49.6,42.9,34.9,24.7,70,49,28,29.98,29.86,4,0,6,0.08
2013-10-10,57.7,55.4,52.5,56.0,51.0,41.0,95,86,61,29.86,29.62,4,0,5,2.07
2013-10-11,62.2,59.9,57.4,61.4,58.7,56.0,97,96,95,29.68,29.59,4,0,5,2.82
2013-10-12,66.0,62.4,59.4,61.7,52.5,36.8,98,74,35,29.83,29.65,5,0,8,0.29
2013-10-13,63.0,59.0,54.3,58.6,51.2,38.1,96,78,43,29.98,29.80,4,0,6,0.21
2013-10-14,66.2,58.3,52.3,49.7,40.9,30.9,81,55,27,30.01,29.86,4,0,5,0.00
2013-10-15,68.5,56.8,48.7,50.6,36.6,21.0,88,53,17,29.89,29.74,5,0,8,0.00
2013-10-16,68.9,61.7,55.8,53.0,45.0,38.6,79,56,36,29.74,29.56,4,0,6,0.00
2013-10-17,73.2,64.4,58.1,59.3,49.9,40.0,89,63,32,29.56,29.39,5,0,10,0.08
2013-10-18,63.7,55.2,46.4,56.2,32.8,19.0,88,47,18,29.68,29.47,5,1,8,0.00
2013-10-19,64.6,53.0,43.3,47.5,36.4,25.3,79,56,23,29.68,29.44,7,1,13,0.00
2013-10-20,60.4,50.8,41.9,42.5,25.0,14.1,69,39,17,29.74,29.50,5,1,8,0.00
2013-10-21,64.6,49.7,37.0,41.2,26.0,14.3,84,46,15,29.80,29.62,7,1,11,0.00
2013-10-22,62.2,50.9,42.1,58.3,33.6,26.6,87,53,30,29.62,29.50,3,0,6,0.00
2013-11-1,69.4,62.2,52.9,60.2,44.1,34.6,89,54,28,29.36,29.27,5,0,6,0.13
2013-11-2,67.5,54.8,44.8,53.9,32.6,17.8,89,49,17,29.53,29.33,8,1,9,0.00
2013-11-3,55.0,45.9,36.0,31.8,18.4,4.1,59,36,16,30.09,29.53,7,2,10,0.00
2013-11-4,47.3,37.1,29.1,14.3,8.4,0.9,51,32,17,30.27,30.09,4,1,6,0.00
2013-11-5,57.2,45.9,33.3,31.9,21.9,12.5,51,39,25,30.27,30.09,5,0,8,0.00
2013-11-6,66.0,54.4,41.9,40.1,31.7,26.8,65,44,24,30.09,29.71,7,2,9,0.00
2013-11-7,60.4,51.9,41.2,52.2,34.3,6.2,90,54,23,29.74,29.53,8,1,9,0.04
2013-11-8,51.3,39.2,30.4,23.2,12.7,4.5,59,36,19,29.95,29.71,9,1,10,0.00
2013-11-9,51.3,39.3,26.6,23.0,13.1,6.4,70,38,19,30.01,29.68,8,1,13,0.00
2013-11-10,60.1,44.4,32.5,25.8,14.2,5.9,63,33,17,29.86,29.62,7,2,10,0.00
2013-11-11,56.3,44.1,31.5,22.4,13.0,6.9,54,30,17,29.95,29.65,7,1,8,0.00
2013-11-12,48.0,38.8,25.7,22.4,7.3,-3.5,44,27,18,30.04,29.62,11,2,14,0.00
2013-11-13,43.2,31.2,24.6,9.8,4.5,-2.0,48,34,18,30.12,30.01,8,1,13,0.00
2013-11-14,53.4,34.9,23.5,16.7,7.6,0.2,54,35,16,30.04,29.86,7,0,8,0.00
2013-11-15,58.6,40.0,25.2,26.1,12.2,4.9,55,34,17,29.92,29.83,6,0,6,0.00
2013-11-16,53.2,48.1,41.0,46.6,36.2,24.6,89,64,45,29.98,29.89,5,0,6,0.13
2013-11-17,63.0,55.8,43.9,57.6,46.4,30.9,95,73,41,29.89,29.42,8,1,10,0.00
2013-11-18,63.9,55.8,46.0,57.7,16.4,6.4,95,24,16,29.59,29.39,7,2,10,0.00
2013-11-19,48.2,41.5,30.4,13.6,7.1,1.2,48,25,19,30.01,29.59,8,2,12,0.00
2013-11-20,43.7,32.7,25.7,15.5,7.4,-2.3,53,37,18,30.21,30.01,7,1,9,0.00
2013-11-21,48.7,37.8,24.4,22.7,14.4,5.7,53,39,26,30.24,30.04,4,0,5,0.00
2013-11-22,60.1,51.2,43.0,41.2,30.4,21.5,62,45,30,30.04,29.65,4,0,8,0.00
2013-11-23,52.7,42.4,30.6,34.6,8.0,-5.1,50,25,17,29.86,29.68,8,4,12,0.00
2013-11-24,32.0,25.8,19.9,-2.8,-6.7,-9.6,35,23,20,30.15,29.86,9,3,12,0.00
2013-11-25,34.9,26.3,17.6,-0.3,-4.0,-7.1,41,26,20,30.21,29.98,7,1,8,0.00
2013-11-26,44.8,35.1,31.6,44.2,19.5,-3.6,98,61,20,29.98,29.24,6,1,8,1.49
2013-11-27,43.5,36.4,27.9,42.5,25.6,1.2,98,69,30,29.68,29.18,9,3,15,0.62
2013-11-28,35.1,28.9,23.9,9.5,1.5,-4.6,44,31,20,30.12,29.68,8,2,10,0.00
2013-11-29,38.8,28.5,20.5,17.3,5.8,-1.5,60,40,19,30.36,30.09,9,1,10,0.00
2013-11-30,36.0,28.0,18.7,11.0,4.2,-1.3,57,38,22,30.36,30.04,5,0,7,0.00
2013-12-1,45.0,33.5,21.9,16.4,10.8,6.2,56,40,20,30.04,29.65,5,0,6,0.00
2013-12-2,49.3,40.3,36.0,22.0,17.9,12.7,51,41,24,29.68,29.53,4,0,5,0.00
2013-12-3,53.2,41.2,33.3,24.6,19.5,15.2,54,43,23,29.65,29.56,5,0,7,0.00
2013-12-4,54.0,43.8,31.8,32.1,25.0,18.8,63,48,32,29.74,29.65,5,0,8,0.00
2013-12-5,64.8,56.6,48.9,52.7,39.3,32.1,70,53,35,29.74,29.59,7,2,9,0.00
2013-12-6,62.6,50.2,37.4,58.6,43.9,31.7,89,80,52,29.83,29.56,8,2,10,0.88
2013-12-7,42.1,35.5,28.2,34.5,20.9,7.5,89,60,29,30.18,29.77,8,2,12,0.20
2013-12-8,32.5,28.6,26.6,27.0,11.6,1.1,82,50,30,30.24,29.92,4,1,6,0.00
2013-12-9,35.4,33.2,32.2,30.5,28.4,23.4,89,82,63,29.95,29.68,4,0,5,0.46
2013-12-10,34.5,31.4,25.3,31.3,28.4,20.4,92,89,79,29.86,29.65,4,0,6,0.04
2013-12-11,34.7,25.5,19.8,20.7,10.5,2.1,82,55,25,30.04,29.86,6,0,8,0.04
2013-12-12,28.2,22.8,16.0,14.3,0.0,-7.3,64,38,21,30.06,29.89,7,1,8,0.00
2013-12-13,37.0,25.7,15.8,10.5,3.0,-2.2,54,39,22,29.95,29.86,6,0,8,0.04
2013-12-14,37.8,32.6,27.9,33.9,19.8,7.4,97,63,29,29.98,29.36,7,1,8,0.04
2013-12-15,42.1,34.0,27.3,36.7,21.1,7.5,96,64,30,29.59,29.30,7,1,10,0.13
2013-12-16,34.9,32.0,29.8,14.3,7.6,0.8,51,36,25,29.86,29.59,5,1,7,0.00
2013-12-17,35.8,32.5,30.4,17.3,12.8,9.4,55,44,35,29.83,29.59,5,1,8,0.00
2013-12-18,38.3,30.2,23.4,19.2,9.3,0.6,65,43,21,29.86,29.65,8,1,8,0.00
2013-12-19,50.9,32.2,21.7,18.6,11.6,6.0,62,45,19,29.86,29.71,7,0,8,0.00
2013-12-20,52.7,41.2,30.0,25.3,17.6,9.7,60,40,18,29.77,29.65,6,1,9,0.00
2013-12-21,66.2,54.5,40.8,43.5,31.3,22.5,55,42,25,29.68,29.56,8,2,13,0.00
2013-12-22,67.5,62.5,58.3,58.7,48.2,42.8,86,60,41,29.65,29.50,11,3,13,0.25
2013-12-23,60.1,53.0,36.9,56.8,41.9,9.2,90,69,31,29.86,29.59,8,1,10,0.83
2013-12-24,39.4,31.7,22.3,19.0,5.5,-9.4,66,34,21,30.09,29.74,8,2,10,0.00
2013-12-25,30.4,23.4,17.4,3.1,-3.9,-8.4,44,30,20,30.18,30.01,6,1,7,0.00
2013-12-26,39.6,27.2,19.4,12.1,5.5,1.1,54,41,21,30.01,29.86,6,0,7,0.00
2013-12-27,45.0,29.9,20.3,18.1,6.1,-2.5,56,39,17,30.06,29.95,7,1,10,0.00
2013-12-28,52.7,35.1,23.4,20.5,9.6,1.8,54,37,18,29.98,29.74,7,0,7,0.00
2013-12-29,46.6,40.3,34.3,44.0,31.7,14.4,97,74,41,29.77,29.21,5,0,5,0.99
2013-12-30,44.2,36.4,30.9,40.3,20.2,4.2,94,58,29,29.83,29.47,8,1,9,0.00
2013-12-31,42.1,31.9,23.5,9.8,4.3,-1.8,45,31,21,29.98,29.74,8,2,13,0.00
2014-1-1,43.9,30.9,22.6,13.6,7.1,1.1,52,38,20,30.06,29.77,7,1,10,0.00
2014-1-2,37.4,31.3,27.0,29.8,18.1,11.4,89,59,40,29.77,29.27,4,0,6,0.00